TimeCST,TemperatureF,Dew PointF,Humidity,Sea Level PressureIn,VisibilityMPH,Wind Direction,Wind SpeedMPH,Gust SpeedMPH,PrecipitationIn,Events,Conditions,WindDirDegrees,DateUTC
12:53 AM,33.1,25.0,72,30.04,10.0,NNE,5.8,-,N/A,,Overcast,20,2012-12-07 06:53:00
1:53 AM,32.0,24.1,73,30.05,10.0,NNE,5.8,-,N/A,,Overcast,20,2012-12-07 07:53:00
2:53 AM,32.0,24.1,73,30.05,10.0,NNE,5.8,-,N/A,,Overcast,30,2012-12-07 08:53:00
3:53 AM,30.9,23.0,72,30.03,10.0,ENE,4.6,-,N/A,,Overcast,70,2012-12-07 09:53:00
4:53 AM,30.0,23.0,75,30.03,10.0,NE,6.9,-,N/A,,Overcast,40,2012-12-07 10:53:00
6:53 AM,27.0,23.0,85,30.04,10.0,NE,4.6,-,N/A,,Mostly Cloudy,50,2012-12-07 12:53:00
7:53 AM,28.9,21.9,75,30.00,10.0,ENE,6.9,-,N/A,,Overcast,70,2012-12-07 13:53:00
8:53 AM,30.9,21.9,69,30.02,10.0,NE,8.1,-,N/A,,Overcast,40,2012-12-07 14:53:00
9:53 AM,30.9,23.0,72,30.01,10.0,NE,12.7,-,N/A,,Overcast,50,2012-12-07 15:53:00
10:53 AM,32.0,21.9,66,30.02,10.0,NNE,13.8,-,N/A,,Overcast,20,2012-12-07 16:53:00
11:53 AM,32.0,23.0,69,30.02,10.0,NNE,12.7,-,N/A,,Overcast,30,2012-12-07 17:53:00
12:53 PM,33.1,23.0,66,30.01,10.0,NNE,13.8,-,N/A,,Overcast,30,2012-12-07 18:53:00
1:53 PM,32.0,21.9,66,29.99,10.0,ENE,16.1,-,N/A,,Overcast,70,2012-12-07 19:53:00
2:53 PM,32.0,21.9,66,30.00,10.0,NE,10.4,-,N/A,,Overcast,40,2012-12-07 20:53:00
3:30 PM,32.0,23.0,69,29.96,4.0,NE,11.5,-,0.00,Snow,Light Snow,50,2012-12-07 21:30:00
3:53 PM,32.0,23.0,69,30.00,9.0,ENE,11.5,-,0.00,,Overcast,70,2012-12-07 21:53:00
4:53 PM,32.0,23.0,69,29.98,10.0,ENE,9.2,-,0.00,,Overcast,60,2012-12-07 22:53:00
5:53 PM,30.9,23.0,72,29.99,4.0,ENE,10.4,-,0.00,Snow,Light Snow,70,2012-12-07 23:53:00
6:53 PM,30.0,24.1,79,30.01,4.0,NE,6.9,-,0.00,Snow,Light Snow,50,2012-12-08 00:53:00
7:53 PM,30.0,25.0,82,30.02,8.0,NE,8.1,-,0.00,,Overcast,40,2012-12-08 01:53:00
8:53 PM,28.9,25.0,85,30.03,3.0,NNE,9.2,-,0.00,Snow,Light Snow,30,2012-12-08 02:53:00
9:49 PM,28.4,26.6,93,29.98,6.0,ENE,9.2,-,0.00,Snow,Light Snow,60,2012-12-08 03:49:00
9:53 PM,28.9,26.1,89,30.03,6.0,NE,9.2,-,0.00,Snow,Light Snow,50,2012-12-08 03:53:00
10:53 PM,30.0,26.1,85,30.04,8.0,ENE,6.9,-,0.00,,Overcast,60,2012-12-08 04:53:00
11:53 PM,30.0,26.1,85,30.04,7.0,ENE,6.9,-,N/A,,Overcast,60,2012-12-08 05:53:00